HKE1 VHHH-VHHH
Flight info
| Callsign | HKE1 |
|---|---|
| Flight time | N/A |
| Altitude | 38000 |
| Route | PECAN3X/07R PECAN V12 EPDOS DCT CARSO V551 BETTY |
| Aircraft | A320/M-SDE3FGHIRWY/LB1 |
Departure
| Time | 2026-05-05 07:08 |
|---|---|
| Airport | Hong Kong International Airport (VHHH) |
Arrival
| Time | N/A |
|---|---|
| Airport | Hong Kong International Airport (VHHH) |
| Time | Latitude | Longitude | Altitude | Speed | Heading |
|---|---|---|---|---|---|
| 2026-05-05 07:08 | 22.32410 | 113.98507 | 4095 ft | 229 kts | 72° |
| 2026-05-05 07:08 | 22.32936 | 114.00144 | 4767 ft | 236 kts | 75° |
| 2026-05-05 07:08 | 22.33442 | 114.01865 | 5343 ft | 246 kts | 76° |
| 2026-05-05 07:09 | 22.33866 | 114.03661 | 6451 ft | 248 kts | 83° |
| 2026-05-05 07:09 | 22.33907 | 114.05538 | 7414 ft | 254 kts | 100° |
| 2026-05-05 07:09 | 22.33429 | 114.07385 | 8393 ft | 257 kts | 118° |
| 2026-05-05 07:09 | 22.32448 | 114.08994 | 9440 ft | 257 kts | 137° |
| 2026-05-05 07:10 | 22.30998 | 114.10321 | 9741 ft | 293 kts | 154° |
| 2026-05-05 07:10 | 22.29043 | 114.10944 | 10470 ft | 302 kts | 178° |
| 2026-05-05 07:10 | 22.26873 | 114.10981 | 11177 ft | 321 kts | 186° |
| 2026-05-05 07:10 | 22.24549 | 114.10824 | 11588 ft | 347 kts | 187° |
| 2026-05-05 07:11 | 22.22121 | 114.10581 | 12102 ft | 362 kts | 189° |
| 2026-05-05 07:11 | 22.19571 | 114.10288 | 12738 ft | 374 kts | 189° |
| 2026-05-05 07:11 | 22.16975 | 114.09986 | 13560 ft | 373 kts | 188° |
| 2026-05-05 07:11 | 22.14379 | 114.09791 | 13813 ft | 373 kts | 186° |
| 2026-05-05 07:12 | 22.11780 | 114.09750 | 13943 ft | 374 kts | 184° |
| 2026-05-05 07:12 | 22.09179 | 114.09778 | 13985 ft | 374 kts | 182° |
| 2026-05-05 07:12 | 22.06574 | 114.09813 | 13984 ft | 374 kts | 183° |
| 2026-05-05 07:12 | 22.03974 | 114.09820 | 13988 ft | 373 kts | 184° |
| 2026-05-05 07:13 | 22.01378 | 114.09791 | 13989 ft | 373 kts | 185° |
| 2026-05-05 07:13 | 21.98780 | 114.09730 | 13982 ft | 373 kts | 185° |
| 2026-05-05 07:13 | 21.96192 | 114.09638 | 13975 ft | 372 kts | 186° |
| 2026-05-05 07:13 | 21.93594 | 114.09517 | 13972 ft | 372 kts | 186° |
| 2026-05-05 07:14 | 21.91009 | 114.09368 | 13985 ft | 372 kts | 187° |
| 2026-05-05 07:14 | 21.88424 | 114.09213 | 14012 ft | 373 kts | 188° |
| 2026-05-05 07:14 | 21.85830 | 114.09157 | 14040 ft | 373 kts | 182° |
| 2026-05-05 07:14 | 21.83224 | 114.09199 | 14064 ft | 375 kts | 181° |
| 2026-05-05 07:15 | 21.80618 | 114.09262 | 13983 ft | 374 kts | 183° |
| 2026-05-05 07:15 | 21.78055 | 114.09257 | 13981 ft | 373 kts | 184° |
| 2026-05-05 07:15 | 21.75462 | 114.09196 | 13979 ft | 373 kts | 185° |
| 2026-05-05 07:15 | 21.72868 | 114.09109 | 13980 ft | 372 kts | 185° |
| 2026-05-05 07:16 | 21.70280 | 114.09019 | 13981 ft | 373 kts | 185° |
| 2026-05-05 07:16 | 21.67685 | 114.08933 | 13980 ft | 373 kts | 185° |
| 2026-05-05 07:16 | 21.65093 | 114.08822 | 13979 ft | 371 kts | 188° |
| 2026-05-05 07:16 | 21.62565 | 114.08332 | 13972 ft | 368 kts | 197° |
| 2026-05-05 07:17 | 21.60066 | 114.07682 | 13978 ft | 368 kts | 197° |
| 2026-05-05 07:17 | 21.57578 | 114.07033 | 13968 ft | 369 kts | 196° |
| 2026-05-05 07:17 | 21.55077 | 114.06381 | 13977 ft | 371 kts | 196° |
| 2026-05-05 07:17 | 21.52570 | 114.05733 | 13968 ft | 371 kts | 196° |
| 2026-05-05 07:18 | 21.50060 | 114.05084 | 13970 ft | 371 kts | 196° |
| 2026-05-05 07:18 | 21.47547 | 114.04434 | 13968 ft | 370 kts | 196° |
| 2026-05-05 07:18 | 21.45037 | 114.03785 | 13969 ft | 371 kts | 196° |
| 2026-05-05 07:18 | 21.42479 | 114.03383 | 13969 ft | 374 kts | 187° |
| 2026-05-05 07:19 | 21.39883 | 114.03212 | 13967 ft | 374 kts | 187° |
| 2026-05-05 07:19 | 21.37285 | 114.03041 | 13967 ft | 374 kts | 187° |
| 2026-05-05 07:19 | 21.34721 | 114.02873 | 13967 ft | 374 kts | 187° |
| 2026-05-05 07:19 | 21.32095 | 114.02698 | 13967 ft | 373 kts | 187° |
| 2026-05-05 07:20 | 21.29534 | 114.02526 | 13965 ft | 373 kts | 187° |
| 2026-05-05 07:20 | 21.26940 | 114.02353 | 13964 ft | 373 kts | 186° |
| 2026-05-05 07:20 | 21.24346 | 114.02185 | 13961 ft | 374 kts | 186° |
| 2026-05-05 07:20 | 21.21751 | 114.02017 | 13964 ft | 374 kts | 186° |
| 2026-05-05 07:21 | 21.19153 | 114.01844 | 13962 ft | 373 kts | 186° |
| 2026-05-05 07:21 | 21.16560 | 114.01666 | 13956 ft | 373 kts | 186° |
| 2026-05-05 07:21 | 21.13966 | 114.01488 | 13958 ft | 373 kts | 186° |
| 2026-05-05 07:21 | 21.11375 | 114.01312 | 13959 ft | 373 kts | 186° |
| 2026-05-05 07:22 | 21.08787 | 114.01137 | 13959 ft | 373 kts | 186° |
| 2026-05-05 07:22 | 21.06191 | 114.00963 | 13958 ft | 373 kts | 186° |
| 2026-05-05 07:22 | 21.03594 | 114.00792 | 13956 ft | 374 kts | 186° |
| 2026-05-05 07:22 | 21.01032 | 114.00626 | 13956 ft | 374 kts | 186° |
| 2026-05-05 07:23 | 20.98403 | 114.00456 | 13950 ft | 374 kts | 186° |
| 2026-05-05 07:23 | 20.95843 | 114.00287 | 13953 ft | 374 kts | 186° |
| 2026-05-05 07:23 | 20.93255 | 114.00016 | 13953 ft | 372 kts | 192° |
| 2026-05-05 07:23 | 20.90709 | 113.99498 | 13953 ft | 373 kts | 187° |
| 2026-05-05 07:24 | 20.88112 | 113.99722 | 13954 ft | 379 kts | 167° |
| 2026-05-05 07:24 | 20.85708 | 114.00903 | 13954 ft | 385 kts | 147° |
| 2026-05-05 07:24 | 20.83789 | 114.02916 | 13952 ft | 391 kts | 127° |
| 2026-05-05 07:24 | 20.82595 | 114.05536 | 13954 ft | 396 kts | 107° |
| 2026-05-05 07:25 | 20.82272 | 114.08457 | 13953 ft | 399 kts | 89° |
| 2026-05-05 07:25 | 20.82439 | 114.11417 | 13953 ft | 399 kts | 86° |
| 2026-05-05 07:25 | 20.82639 | 114.14383 | 13953 ft | 400 kts | 86° |
| 2026-05-05 07:25 | 20.82839 | 114.17313 | 13953 ft | 400 kts | 86° |
| 2026-05-05 07:26 | 20.83043 | 114.20317 | 13953 ft | 400 kts | 86° |
| 2026-05-05 07:26 | 20.83245 | 114.23236 | 13953 ft | 400 kts | 86° |
| 2026-05-05 07:26 | 20.83450 | 114.26206 | 13954 ft | 400 kts | 86° |
| 2026-05-05 07:26 | 20.83655 | 114.29172 | 13952 ft | 400 kts | 86° |
| 2026-05-05 07:27 | 20.83860 | 114.32136 | 13953 ft | 400 kts | 86° |
| 2026-05-05 07:27 | 20.84150 | 114.35103 | 13952 ft | 400 kts | 79° |
| 2026-05-05 07:27 | 20.85089 | 114.37890 | 13954 ft | 400 kts | 61° |
| 2026-05-05 07:27 | 20.86756 | 114.40258 | 13953 ft | 400 kts | 43° |
| 2026-05-05 07:28 | 20.89000 | 114.41974 | 13955 ft | 396 kts | 25° |
| 2026-05-05 07:28 | 20.91567 | 114.42895 | 13956 ft | 393 kts | 9° |
| 2026-05-05 07:28 | 20.94244 | 114.43492 | 13957 ft | 394 kts | 9° |
| 2026-05-05 07:28 | 20.96930 | 114.44094 | 13957 ft | 394 kts | 9° |
| 2026-05-05 07:29 | 20.99611 | 114.44697 | 13955 ft | 394 kts | 9° |
| 2026-05-05 07:29 | 21.02295 | 114.45305 | 13955 ft | 394 kts | 9° |
| 2026-05-05 07:29 | 21.04984 | 114.45917 | 13955 ft | 394 kts | 9° |
| 2026-05-05 07:29 | 21.07675 | 114.46534 | 13956 ft | 394 kts | 9° |
| 2026-05-05 07:30 | 21.10357 | 114.47148 | 13964 ft | 394 kts | 9° |
| 2026-05-05 07:30 | 21.15726 | 114.48370 | 13964 ft | 395 kts | 9° |
| 2026-05-05 07:30 | 21.18409 | 114.48981 | 13964 ft | 394 kts | 9° |
| 2026-05-05 07:31 | 21.21095 | 114.49594 | 13963 ft | 394 kts | 9° |
| 2026-05-05 07:31 | 21.23775 | 114.50207 | 13969 ft | 394 kts | 9° |
| 2026-05-05 07:31 | 21.26454 | 114.50821 | 13968 ft | 393 kts | 9° |
| 2026-05-05 07:31 | 21.29129 | 114.51433 | 13963 ft | 393 kts | 9° |
| 2026-05-05 07:32 | 21.31807 | 114.52043 | 13966 ft | 393 kts | 9° |
| 2026-05-05 07:32 | 21.34484 | 114.52651 | 13969 ft | 393 kts | 9° |
| 2026-05-05 07:32 | 21.37164 | 114.53261 | 13969 ft | 393 kts | 9° |
| 2026-05-05 07:32 | 21.39838 | 114.53873 | 13970 ft | 393 kts | 9° |
| 2026-05-05 07:33 | 21.42511 | 114.54486 | 13967 ft | 393 kts | 9° |